createdAt,value
2022-10-02T00:01:35.726Z,10.40
2022-10-02T00:04:07.264Z,11.25
2022-10-02T00:06:42.963Z,11.00
2022-10-02T00:09:18.542Z,13.57
2022-10-02T00:11:53.854Z,13.60
2022-10-02T00:14:25.687Z,13.35
2022-10-02T00:16:56.879Z,12.57
2022-10-02T00:19:26.828Z,8.77
2022-10-02T00:22:21.388Z,13.95
2022-10-02T00:24:56.207Z,10.20
2022-10-02T00:27:40.308Z,10.00
2022-10-02T00:30:13.143Z,9.65
2022-10-02T00:32:48.753Z,11.48
2022-10-02T00:35:46.027Z,8.65
2022-10-02T00:38:25.932Z,9.15
2022-10-02T00:41:17.526Z,9.27
2022-10-02T00:43:58.941Z,10.07
2022-10-02T00:46:40.121Z,10.57
2022-10-02T00:52:03.143Z,11.38
2022-10-02T00:55:04.600Z,11.95
2022-10-02T00:57:49.811Z,8.57
2022-10-02T01:00:20.867Z,12.02
2022-10-02T01:05:51.176Z,9.07
2022-10-02T01:08:20.460Z,7.70
2022-10-02T01:10:50.408Z,7.55
2022-10-02T01:13:19.140Z,7.13
2022-10-02T01:15:53.597Z,8.20
2022-10-02T01:18:23.080Z,8.32
2022-10-02T01:20:53.756Z,8.10
2022-10-02T01:23:32.371Z,7.57
2022-10-02T01:26:03.073Z,8.15
2022-10-02T01:28:31.892Z,7.88
2022-10-02T01:31:07.753Z,6.22
2022-10-02T01:33:38.626Z,8.50
2022-10-02T01:36:07.641Z,6.60
2022-10-02T01:38:37.090Z,8.13
2022-10-02T01:41:07.893Z,6.68
2022-10-02T01:43:39.450Z,7.68
2022-10-02T01:46:22.479Z,6.88
2022-10-02T01:49:02.238Z,6.93
2022-10-02T01:52:00.768Z,5.93
2022-10-02T01:54:42.749Z,6.75
2022-10-02T01:57:24.641Z,7.45
2022-10-02T02:00:06.316Z,7.90
2022-10-02T02:02:50.155Z,6.50
2022-10-02T02:05:28.706Z,6.22
2022-10-02T02:08:07.614Z,7.03
2022-10-02T02:10:46.670Z,5.75
2022-10-02T02:13:21.650Z,7.53
2022-10-02T02:15:58.406Z,5.63
2022-10-02T02:18:33.709Z,6.78
2022-10-02T02:21:08.329Z,7.25
2022-10-02T02:23:40.635Z,6.90
2022-10-02T02:26:13.317Z,5.22
2022-10-02T02:28:50.118Z,6.22
2022-10-02T02:31:23.594Z,5.05
2022-10-02T02:33:57.323Z,5.88
2022-10-02T02:36:30.886Z,5.97
2022-10-02T02:39:04.901Z,4.75
2022-10-02T02:41:40.150Z,4.35
2022-10-02T02:44:14.381Z,5.70
2022-10-02T02:47:06.933Z,4.85
2022-10-02T02:49:49.494Z,5.72
2022-10-02T02:52:21.527Z,4.68
2022-10-02T02:54:55.278Z,3.83
2022-10-02T02:57:30.090Z,4.00
2022-10-02T03:00:02.410Z,4.20
2022-10-02T03:02:31.175Z,4.35
2022-10-02T03:05:00.019Z,4.18
2022-10-02T03:07:29.078Z,5.18
2022-10-02T03:10:09.988Z,4.10
2022-10-02T03:12:58.362Z,4.68
2022-10-02T03:15:34.896Z,4.70
2022-10-02T03:18:20.460Z,4.18
2022-10-02T03:20:58.762Z,4.95
2022-10-02T03:23:31.740Z,4.25
2022-10-02T03:26:05.522Z,5.88
2022-10-02T03:28:54.924Z,3.80
2022-10-02T03:31:29.526Z,4.83
2022-10-02T03:34:00.669Z,3.90
2022-10-02T03:36:32.424Z,4.80
2022-10-02T03:41:53.524Z,3.88
2022-10-02T03:44:22.540Z,5.78
2022-10-02T03:46:52.906Z,5.03
2022-10-02T03:49:21.804Z,5.10
2022-10-02T03:51:50.758Z,6.60
2022-10-02T03:54:22.476Z,4.80
2022-10-02T03:56:56.690Z,5.40
2022-10-02T03:59:40.261Z,4.35
2022-10-02T04:02:20.804Z,5.32
2022-10-02T04:04:54.883Z,4.15
2022-10-02T04:07:28.728Z,4.45
2022-10-02T04:10:09.102Z,3.95
2022-10-02T04:12:42.083Z,5.18
2022-10-02T04:15:18.609Z,4.68
2022-10-02T04:17:58.756Z,3.67
2022-10-02T04:20:34.069Z,5.72
2022-10-02T04:23:10.644Z,4.47
2022-10-02T04:25:45.910Z,4.32
2022-10-02T04:28:18.300Z,6.55
2022-10-02T04:30:47.087Z,7.95
2022-10-02T04:33:20.464Z,5.07
2022-10-02T04:35:59.843Z,4.20
2022-10-02T04:38:56.185Z,7.47
2022-10-02T04:41:41.106Z,5.13
2022-10-02T04:44:21.483Z,5.05
2022-10-02T04:47:13.127Z,4.68
2022-10-02T04:50:00.067Z,5.05
2022-10-02T04:52:47.408Z,4.70
2022-10-02T04:55:43.441Z,5.60
2022-10-02T04:58:52.725Z,5.03
2022-10-02T05:01:33.247Z,5.50
2022-10-02T05:04:22.642Z,3.75
2022-10-02T05:07:12.445Z,4.03
2022-10-02T05:09:49.888Z,6.00
2022-10-02T05:12:35.304Z,5.65
2022-10-02T05:15:24.769Z,4.85
2022-10-02T05:18:08.143Z,6.10
2022-10-02T05:21:01.208Z,6.30
2022-10-02T05:23:46.551Z,4.72
2022-10-02T05:26:43.410Z,5.20
2022-10-02T05:29:32.803Z,5.30
2022-10-02T05:32:22.286Z,4.90
2022-10-02T05:35:08.090Z,6.35
2022-10-02T05:37:53.945Z,4.93
2022-10-02T05:40:31.945Z,6.93
2022-10-02T05:43:07.789Z,6.65
2022-10-02T05:45:39.566Z,5.60
2022-10-02T05:48:15.870Z,7.60
2022-10-02T05:50:51.026Z,8.05
2022-10-02T05:53:32.984Z,6.35
2022-10-02T05:56:06.950Z,8.55
2022-10-02T05:58:40.201Z,7.15
2022-10-02T06:01:13.613Z,11.18
2022-10-02T06:03:48.105Z,8.15
2022-10-02T06:06:19.742Z,7.10
2022-10-02T06:08:52.184Z,8.45
2022-10-02T06:11:29.706Z,7.70
2022-10-02T06:14:02.286Z,7.03
2022-10-02T06:16:37.837Z,8.18
2022-10-02T06:19:13.053Z,8.68
2022-10-02T06:21:48.338Z,9.05
2022-10-02T06:24:24.774Z,7.57
2022-10-02T06:27:04.113Z,7.55
2022-10-02T06:29:41.424Z,9.25
2022-10-02T06:32:19.561Z,8.13
2022-10-02T06:34:48.503Z,8.85
2022-10-02T06:37:43.221Z,7.70
2022-10-02T06:40:32.068Z,9.38
2022-10-02T06:43:07.088Z,8.77
2022-10-02T06:45:46.561Z,8.30
2022-10-02T06:48:26.582Z,7.55
2022-10-02T06:51:05.307Z,7.50
2022-10-02T06:54:02.445Z,8.43
2022-10-02T06:56:46.253Z,7.25
2022-10-02T06:59:31.554Z,8.68
2022-10-02T07:02:06.923Z,9.55
2022-10-02T07:04:52.734Z,8.93
2022-10-02T07:07:42.932Z,8.38
2022-10-02T07:10:30.317Z,10.35
2022-10-02T07:13:19.269Z,8.65
2022-10-02T07:16:08.683Z,8.02
2022-10-02T07:18:58.152Z,8.23
2022-10-02T07:21:40.067Z,8.20
2022-10-02T07:24:27.391Z,8.63
2022-10-02T07:27:04.669Z,6.63
2022-10-02T07:29:50.723Z,6.88
2022-10-02T07:32:49.133Z,7.05
2022-10-02T07:35:38.972Z,7.35
2022-10-02T07:38:21.870Z,7.90
2022-10-02T07:41:01.520Z,6.85
2022-10-02T07:43:52.186Z,7.90
2022-10-02T07:46:29.465Z,6.47
2022-10-02T07:49:22.289Z,5.93
2022-10-02T07:51:59.164Z,6.70
2022-10-02T07:54:41.608Z,8.85
2022-10-02T07:57:26.170Z,6.55
2022-10-02T07:59:59.447Z,7.03
2022-10-02T08:02:36.093Z,6.75
2022-10-02T08:05:14.167Z,6.93
2022-10-02T08:07:43.272Z,7.40
2022-10-02T08:10:16.787Z,6.53
2022-10-02T08:12:51.931Z,7.95
2022-10-02T08:15:23.967Z,6.78
2022-10-02T08:17:58.786Z,8.93
2022-10-02T08:20:42.547Z,8.60
2022-10-02T08:23:21.686Z,6.65
2022-10-02T08:25:59.642Z,6.05
2022-10-02T08:28:36.040Z,8.57
2022-10-02T08:31:10.731Z,7.85
2022-10-02T08:33:40.282Z,5.78
2022-10-02T08:36:56.425Z,5.60
2022-10-02T08:39:46.860Z,6.00
2022-10-02T08:42:37.599Z,5.90
2022-10-02T08:45:49.730Z,5.57
2022-10-02T08:48:58.604Z,6.05
2022-10-02T08:51:53.101Z,5.70
2022-10-02T08:54:57.250Z,8.63
2022-10-02T08:57:52.480Z,6.70
2022-10-02T09:00:26.965Z,5.80
2022-10-02T09:03:20.740Z,7.13
2022-10-02T09:06:43.324Z,7.25
2022-10-02T09:09:50.102Z,5.90
2022-10-02T09:12:59.221Z,21.40
2022-10-02T09:15:45.150Z,7.28
2022-10-02T09:18:19.804Z,5.40
2022-10-02T09:21:14.922Z,5.53
2022-10-02T09:24:32.539Z,5.50
2022-10-02T09:28:02.263Z,6.43
2022-10-02T09:30:59.219Z,4.72
2022-10-02T09:34:15.070Z,3.47
2022-10-02T09:37:13.962Z,4.55
2022-10-02T09:40:11.968Z,15.75
2022-10-02T09:43:11.262Z,3.53
2022-10-02T09:46:20.208Z,3.90
2022-10-02T09:49:21.546Z,5.85
2022-10-02T09:55:09.840Z,5.32
2022-10-02T09:58:25.330Z,4.55
2022-10-02T10:01:27.895Z,2.85
2022-10-02T10:04:47.861Z,3.55
2022-10-02T10:08:05.509Z,3.53
2022-10-02T10:11:01.609Z,5.60
2022-10-02T10:14:23.742Z,4.90
2022-10-02T10:17:21.001Z,6.07
2022-10-02T10:20:35.000Z,4.15
2022-10-02T10:23:15.720Z,3.85
2022-10-02T10:26:16.490Z,3.55
2022-10-02T10:32:05.621Z,4.15
2022-10-02T10:35:05.529Z,4.88
2022-10-02T10:38:12.729Z,5.30
2022-10-02T10:41:11.367Z,3.83
2022-10-02T10:44:12.149Z,4.53
2022-10-02T10:47:18.415Z,5.00
2022-10-02T10:50:16.605Z,6.90
2022-10-02T10:53:28.490Z,3.47
2022-10-02T10:56:33.698Z,3.80
2022-10-02T10:59:42.709Z,3.83
2022-10-02T11:02:45.565Z,2.70
2022-10-02T11:05:38.462Z,3.15
2022-10-02T11:08:28.525Z,3.83
2022-10-02T11:11:08.044Z,4.05
2022-10-02T11:13:58.009Z,4.03
2022-10-02T11:17:10.850Z,3.20
2022-10-02T11:20:04.663Z,2.53
2022-10-02T11:22:54.623Z,3.38
2022-10-02T11:25:42.863Z,4.18
2022-10-02T11:28:32.391Z,3.33
2022-10-02T11:31:19.201Z,3.60
2022-10-02T11:34:38.329Z,2.70
2022-10-02T11:37:24.549Z,2.83
2022-10-02T11:40:15.802Z,17.27
2022-10-02T11:43:13.961Z,70.20
2022-10-02T11:46:04.206Z,10.10
2022-10-02T11:49:01.223Z,62.58
2022-10-02T11:51:47.888Z,220.50
2022-10-02T11:54:41.407Z,140.82
2022-10-02T11:57:23.064Z,84.05
2022-10-02T12:00:09.460Z,15.13
2022-10-02T12:02:50.935Z,24.80
2022-10-02T12:05:36.904Z,4.93
2022-10-02T12:08:17.850Z,13.57
2022-10-02T12:10:56.886Z,39.50
2022-10-02T12:13:50.226Z,45.88
2022-10-02T12:16:32.635Z,3.85
2022-10-02T12:19:18.086Z,4.40
2022-10-02T12:22:16.165Z,3.42
2022-10-02T12:25:17.179Z,2.90
2022-10-02T12:27:59.893Z,7.32
2022-10-02T12:30:35.406Z,3.15
2022-10-02T12:33:23.223Z,3.05
2022-10-02T12:36:24.548Z,3.05
2022-10-02T12:41:44.213Z,2.78
2022-10-02T12:44:29.701Z,3.85
2022-10-02T12:47:18.658Z,5.57
2022-10-02T12:50:03.072Z,3.53
2022-10-02T12:53:06.700Z,2.50
2022-10-02T12:56:01.706Z,4.93
2022-10-02T12:58:42.698Z,3.80
2022-10-02T13:02:10.683Z,4.63
2022-10-02T13:05:44.622Z,2.78
2022-10-02T13:08:40.128Z,3.47
2022-10-02T13:11:20.328Z,6.03
2022-10-02T13:14:07.585Z,3.20
2022-10-02T13:16:58.419Z,2.40
2022-10-02T13:19:35.062Z,3.58
2022-10-02T13:22:13.970Z,2.85
2022-10-02T13:25:01.266Z,3.53
2022-10-02T13:27:39.230Z,2.25
2022-10-02T13:30:14.968Z,1.80
2022-10-02T13:33:06.186Z,4.05
2022-10-02T13:38:47.227Z,3.47
2022-10-02T13:41:30.184Z,2.35
2022-10-02T13:44:09.067Z,2.65
2022-10-02T13:46:54.552Z,3.35
2022-10-02T13:49:38.251Z,4.35
2022-10-02T13:52:19.125Z,3.05
2022-10-02T13:55:02.662Z,3.25
2022-10-02T13:57:48.378Z,2.58
2022-10-02T14:00:25.366Z,2.92
2022-10-02T14:03:06.851Z,3.97
2022-10-02T14:05:43.604Z,3.42
2022-10-02T14:08:29.884Z,2.38
2022-10-02T14:11:10.499Z,2.55
2022-10-02T14:14:03.962Z,2.88
2022-10-02T14:16:51.272Z,4.43
2022-10-02T14:19:57.505Z,3.00
2022-10-02T14:22:36.989Z,3.35
2022-10-02T14:25:28.243Z,8.05
2022-10-02T14:28:30.638Z,3.25
2022-10-02T14:31:33.068Z,5.20
2022-10-02T14:34:22.603Z,4.05
2022-10-02T14:37:02.702Z,6.15
2022-10-02T14:39:36.043Z,3.40
2022-10-02T14:42:21.137Z,6.22
2022-10-02T14:45:21.951Z,4.47
2022-10-02T14:48:10.930Z,2.47
2022-10-02T14:50:55.729Z,5.68
2022-10-02T14:53:44.263Z,275.60
2022-10-02T14:56:45.658Z,406.23
2022-10-02T15:02:03.971Z,629.13
2022-10-02T15:04:49.305Z,35.15
2022-10-02T15:07:22.435Z,206.00
2022-10-02T15:10:08.813Z,202.43
2022-10-02T15:12:50.352Z,11.50
2022-10-02T15:15:26.814Z,11.60
2022-10-02T15:18:21.235Z,8.82
2022-10-02T15:20:59.683Z,9.98
2022-10-02T15:23:46.127Z,22.85
2022-10-02T15:26:50.455Z,54.38
2022-10-02T15:29:31.256Z,20.50
2022-10-02T15:32:48.534Z,8.48
2022-10-02T15:35:28.963Z,12.82
2022-10-02T15:38:22.231Z,2.80
2022-10-02T15:41:05.910Z,3.40
2022-10-02T15:43:49.072Z,3.00
2022-10-02T15:46:26.114Z,3.80
2022-10-02T15:49:15.132Z,4.72
2022-10-02T15:51:58.157Z,4.85
2022-10-02T15:54:39.734Z,7.03
2022-10-02T15:57:28.454Z,3.53
2022-10-02T16:00:11.336Z,46.90
2022-10-02T16:03:06.647Z,65.32
2022-10-02T16:05:54.446Z,46.67
2022-10-02T16:08:54.283Z,4.88
2022-10-02T16:12:25.681Z,4.15
2022-10-02T16:15:22.562Z,2.67
2022-10-02T16:18:24.145Z,3.70
2022-10-02T16:21:02.351Z,3.22
2022-10-02T16:24:21.573Z,3.25
2022-10-02T16:27:30.762Z,2.33
2022-10-02T16:30:13.437Z,3.05
2022-10-02T16:33:04.736Z,3.13
2022-10-02T16:38:23.742Z,6.80
2022-10-02T16:40:58.162Z,3.53
2022-10-02T16:43:49.585Z,9.05
2022-10-02T16:46:25.921Z,4.03
2022-10-02T16:49:00.638Z,4.72
2022-10-02T16:51:40.663Z,5.35
2022-10-02T16:54:19.541Z,3.35
2022-10-02T16:56:55.264Z,4.97
2022-10-02T16:59:28.705Z,2.42
2022-10-02T17:02:17.538Z,5.22
2022-10-02T17:04:58.760Z,2.70
2022-10-02T17:07:42.823Z,3.72
2022-10-02T17:10:22.836Z,4.30
2022-10-02T17:12:57.942Z,3.40
2022-10-02T17:15:35.223Z,3.30
2022-10-02T17:18:28.165Z,3.83
2022-10-02T17:21:02.325Z,3.60
2022-10-02T17:23:39.832Z,4.03
2022-10-02T17:26:15.878Z,3.63
2022-10-02T17:28:49.817Z,6.95
2022-10-02T17:31:35.931Z,3.83
2022-10-02T17:34:20.380Z,7.68
2022-10-02T17:36:57.798Z,3.08
2022-10-02T17:40:06.574Z,4.63
2022-10-02T17:42:52.203Z,3.95
2022-10-02T17:45:38.414Z,5.22
2022-10-02T17:48:24.558Z,4.63
2022-10-02T17:51:38.611Z,4.07
2022-10-02T17:54:37.025Z,3.22
2022-10-02T17:57:24.321Z,2.90
2022-10-02T18:00:15.719Z,3.92
2022-10-02T18:05:34.162Z,4.72
2022-10-02T18:08:21.677Z,4.93
2022-10-02T18:11:04.838Z,3.75
2022-10-02T18:13:47.459Z,4.28
2022-10-02T18:16:30.244Z,5.88
2022-10-02T18:19:16.558Z,5.43
2022-10-02T18:21:52.498Z,8.20
2022-10-02T18:24:43.199Z,6.45
2022-10-02T18:27:45.457Z,3.78
2022-10-02T18:30:20.620Z,4.47
2022-10-02T18:33:27.039Z,6.03
2022-10-02T18:36:28.760Z,6.63
2022-10-02T18:39:03.438Z,4.45
2022-10-02T18:41:53.780Z,5.43
2022-10-02T18:44:51.139Z,4.03
2022-10-02T18:47:34.335Z,6.57
2022-10-02T18:50:20.337Z,4.57
2022-10-02T18:53:03.403Z,5.93
2022-10-02T18:56:02.818Z,5.00
2022-10-02T18:58:48.522Z,6.30
2022-10-02T19:01:42.705Z,5.25
2022-10-02T19:04:37.171Z,6.00
2022-10-02T19:07:16.379Z,4.10
2022-10-02T19:09:46.920Z,2.80
2022-10-02T19:12:18.862Z,4.13
2022-10-02T19:14:50.642Z,7.28
2022-10-02T19:17:26.186Z,4.63
2022-10-02T19:19:56.044Z,7.90
2022-10-02T19:22:28.459Z,6.07
2022-10-02T19:25:00.600Z,7.20
2022-10-02T19:27:34.569Z,4.85
2022-10-02T19:30:08.063Z,5.18
2022-10-02T19:32:41.522Z,4.50
2022-10-02T19:35:19.121Z,7.63
2022-10-02T19:37:56.059Z,4.20
2022-10-02T19:40:27.720Z,6.90
2022-10-02T19:43:02.977Z,4.05
2022-10-02T19:45:34.976Z,4.30
2022-10-02T19:48:08.129Z,5.65
2022-10-02T19:50:42.387Z,5.35
2022-10-02T19:53:23.708Z,3.88
2022-10-02T19:55:57.385Z,4.57
2022-10-02T19:58:34.659Z,4.60
2022-10-02T20:01:07.688Z,4.43
2022-10-02T20:03:38.198Z,5.75
2022-10-02T20:06:22.518Z,5.88
2022-10-02T20:08:57.019Z,5.53
2022-10-02T20:11:35.882Z,5.90
2022-10-02T20:14:09.600Z,6.70
2022-10-02T20:16:57.746Z,7.13
2022-10-02T20:19:28.665Z,6.18
2022-10-02T20:21:59.759Z,4.75
2022-10-02T20:27:06.420Z,4.38
2022-10-02T20:29:44.720Z,6.90
2022-10-02T20:32:23.400Z,6.18
2022-10-02T20:34:56.699Z,5.18
2022-10-02T20:37:30.861Z,5.00
2022-10-02T20:40:07.405Z,7.43
2022-10-02T20:42:44.521Z,4.93
2022-10-02T20:45:15.240Z,5.72
2022-10-02T20:49:07.091Z,3.55
2022-10-02T20:52:17.567Z,3.90
2022-10-02T20:54:55.706Z,4.68
2022-10-02T20:58:01.945Z,6.93
2022-10-02T21:00:40.364Z,5.78
2022-10-02T21:03:24.504Z,7.57
2022-10-02T21:09:13.845Z,4.22
2022-10-02T21:12:08.087Z,4.43
2022-10-02T21:15:17.968Z,6.10
2022-10-02T21:18:14.946Z,3.97
2022-10-02T21:21:36.270Z,3.92
2022-10-02T21:24:53.303Z,5.55
2022-10-02T21:27:46.529Z,3.00
2022-10-02T21:30:16.746Z,5.68
2022-10-02T21:32:59.683Z,5.63
2022-10-02T21:35:50.943Z,3.70
2022-10-02T21:41:48.779Z,3.78
2022-10-02T21:44:55.037Z,5.05
2022-10-02T21:47:55.301Z,6.07
2022-10-02T21:51:02.916Z,6.00
2022-10-02T21:53:52.276Z,3.90
2022-10-02T21:57:02.699Z,4.47
2022-10-02T22:00:08.842Z,5.10
2022-10-02T22:03:18.619Z,4.75
2022-10-02T22:06:36.700Z,4.03
2022-10-02T22:09:33.921Z,4.35
2022-10-02T22:12:18.039Z,4.03
2022-10-02T22:14:51.642Z,6.15
2022-10-02T22:17:31.588Z,4.82
2022-10-02T22:20:19.940Z,4.63
2022-10-02T22:23:07.970Z,5.05
2022-10-02T22:25:51.724Z,15.95
2022-10-02T22:28:39.727Z,4.95
2022-10-02T22:31:24.198Z,4.55
2022-10-02T22:34:04.371Z,5.63
2022-10-02T22:37:23.637Z,6.03
2022-10-02T22:40:03.669Z,5.47
2022-10-02T22:42:40.435Z,4.93
2022-10-02T22:45:19.136Z,6.10
2022-10-02T22:47:56.557Z,5.60
2022-10-02T22:50:31.387Z,7.40
2022-10-02T22:53:08.242Z,4.32
2022-10-02T22:55:47.019Z,7.93
2022-10-02T22:58:20.400Z,5.07
2022-10-02T23:00:58.888Z,6.63
2022-10-02T23:03:34.282Z,6.22
2022-10-02T23:06:06.346Z,4.82
2022-10-02T23:08:40.244Z,5.32
2022-10-02T23:11:16.996Z,4.97
2022-10-02T23:13:51.004Z,6.50
2022-10-02T23:16:26.818Z,5.53
2022-10-02T23:19:02.357Z,8.70
2022-10-02T23:21:45.949Z,8.85
2022-10-02T23:24:24.066Z,7.20
2022-10-02T23:27:04.917Z,6.00
2022-10-02T23:29:45.056Z,5.30
2022-10-02T23:32:24.516Z,6.15
2022-10-02T23:35:01.270Z,7.47
2022-10-02T23:37:39.167Z,8.05
2022-10-02T23:40:19.923Z,7.40
2022-10-02T23:42:56.073Z,6.30
2022-10-02T23:45:29.747Z,5.50
2022-10-02T23:48:01.544Z,8.20
2022-10-02T23:50:39.766Z,7.72
2022-10-02T23:54:05.130Z,6.72
2022-10-02T23:56:47.531Z,6.50
2022-10-02T23:59:50.336Z,6.63
